createdAt,value
2018-12-25T00:02:57.375Z,3.89
2018-12-25T00:07:53.392Z,4.08
2018-12-25T00:12:49.416Z,4.48
2018-12-25T00:17:45.626Z,4.71
2018-12-25T00:22:42.921Z,4.52
2018-12-25T00:28:01.065Z,3.99
2018-12-25T00:32:57.183Z,3.85
2018-12-25T00:37:53.204Z,3.79
2018-12-25T00:42:49.350Z,3.86
2018-12-25T00:47:46.424Z,3.79
2018-12-25T00:52:42.607Z,4.49
2018-12-25T00:57:38.868Z,4.01
2018-12-25T01:02:34.892Z,3.84
2018-12-25T01:07:30.922Z,4.01
2018-12-25T01:12:27.146Z,3.83
2018-12-25T01:17:23.264Z,4.02
2018-12-25T01:22:19.334Z,4.15
2018-12-25T01:27:15.407Z,3.85
2018-12-25T01:32:11.396Z,3.81
2018-12-25T01:37:07.419Z,3.78
2018-12-25T01:42:03.435Z,3.79
2018-12-25T01:46:59.451Z,3.84
2018-12-25T01:51:55.470Z,3.82
2018-12-25T01:56:51.586Z,4.63
2018-12-25T02:01:47.811Z,4.25
2018-12-25T02:06:43.957Z,4.32
2018-12-25T02:11:39.984Z,4.49
2018-12-25T02:16:35.991Z,4.55
2018-12-25T02:21:32.110Z,4.18
2018-12-25T02:26:28.128Z,4.46
2018-12-25T02:31:24.140Z,4.16
2018-12-25T02:36:20.164Z,4.02
2018-12-25T02:41:16.180Z,3.95
2018-12-25T02:46:12.188Z,3.86
2018-12-25T02:51:08.204Z,3.93
2018-12-25T02:56:04.215Z,3.86
2018-12-25T03:01:00.229Z,3.77
2018-12-25T03:05:56.245Z,3.73
2018-12-25T03:10:52.260Z,3.65
2018-12-25T03:15:48.271Z,3.43
2018-12-25T03:20:44.286Z,3.37
2018-12-25T03:25:40.306Z,3.52
2018-12-25T03:30:36.328Z,3.40
2018-12-25T03:35:32.327Z,3.44
2018-12-25T03:40:28.346Z,3.91
2018-12-25T03:45:24.370Z,4.13
2018-12-25T03:50:20.386Z,3.84
2018-12-25T03:55:16.401Z,3.61
2018-12-25T04:00:12.419Z,3.60
2018-12-25T04:05:08.434Z,3.82
2018-12-25T04:10:04.451Z,3.75
2018-12-25T04:15:00.471Z,3.64
2018-12-25T04:19:56.516Z,3.69
2018-12-25T04:24:52.536Z,4.14
2018-12-25T04:29:48.550Z,4.07
2018-12-25T04:34:44.576Z,3.88
2018-12-25T04:39:40.593Z,3.75
2018-12-25T04:44:36.616Z,3.69
2018-12-25T04:49:32.633Z,3.90
2018-12-25T04:54:28.650Z,4.21
2018-12-25T04:59:24.667Z,3.77
2018-12-25T05:04:20.690Z,3.68
2018-12-25T05:09:16.706Z,3.64
2018-12-25T05:14:12.722Z,3.73
2018-12-25T05:19:08.738Z,3.62
2018-12-25T05:24:04.758Z,3.57
2018-12-25T05:29:00.775Z,4.31
2018-12-25T05:33:56.902Z,3.72
2018-12-25T05:38:52.912Z,4.04
2018-12-25T05:43:48.936Z,3.63
2018-12-25T05:48:44.958Z,4.15
2018-12-25T05:53:40.966Z,4.17
2018-12-25T05:58:37.727Z,3.65
2018-12-25T06:03:33.706Z,3.89
2018-12-25T06:08:29.723Z,3.72
2018-12-25T06:13:25.757Z,4.17
2018-12-25T06:18:21.759Z,3.75
2018-12-25T06:23:17.952Z,3.65
2018-12-25T06:28:14.676Z,3.68
2018-12-25T06:33:10.655Z,4.27
2018-12-25T06:38:06.673Z,3.92
2018-12-25T06:43:02.694Z,3.87
2018-12-25T06:47:58.715Z,3.68
2018-12-25T06:52:54.732Z,3.53
2018-12-25T06:58:32.712Z,3.59
2018-12-25T07:03:28.783Z,3.87
2018-12-25T07:08:24.813Z,4.16
2018-12-25T07:13:20.854Z,3.71
2018-12-25T07:18:16.891Z,3.85
2018-12-25T07:23:13.044Z,3.56
2018-12-25T07:28:09.743Z,3.50
2018-12-25T07:33:05.761Z,3.63
2018-12-25T07:38:01.798Z,3.66
2018-12-25T07:42:57.840Z,3.64
2018-12-25T07:47:53.988Z,3.77
2018-12-25T07:52:50.012Z,3.86
2018-12-25T07:57:47.044Z,4.10
2018-12-25T08:02:43.184Z,3.67
2018-12-25T08:07:39.219Z,3.60
2018-12-25T08:12:35.279Z,3.87
2018-12-25T08:17:31.395Z,3.87
2018-12-25T08:22:35.119Z,4.01
2018-12-25T08:27:32.627Z,4.21
2018-12-25T08:32:28.842Z,4.20
2018-12-25T08:37:24.872Z,4.13
2018-12-25T08:42:20.960Z,4.27
2018-12-25T08:47:17.119Z,4.56
2018-12-25T08:52:13.138Z,4.57
2018-12-25T08:57:09.187Z,4.80
2018-12-25T09:02:05.271Z,4.87
2018-12-25T09:07:01.295Z,4.57
2018-12-25T09:11:57.340Z,4.81
2018-12-25T09:16:53.856Z,4.98
2018-12-25T09:21:49.969Z,4.98
2018-12-25T09:26:46.120Z,4.96
2018-12-25T09:31:42.145Z,5.48
2018-12-25T09:36:38.266Z,5.24
2018-12-25T09:41:34.336Z,5.20
2018-12-25T09:46:30.358Z,5.27
2018-12-25T09:51:26.449Z,5.41
2018-12-25T09:56:22.479Z,5.52
2018-12-25T10:01:18.522Z,5.57
2018-12-25T10:06:14.603Z,5.73
2018-12-25T10:11:10.814Z,5.80
2018-12-25T10:16:06.864Z,5.82
2018-12-25T10:21:03.156Z,5.94
2018-12-25T10:25:59.180Z,6.14
2018-12-25T10:31:15.811Z,6.49
2018-12-25T10:36:11.863Z,6.55
2018-12-25T10:41:07.923Z,6.32
2018-12-25T10:46:04.197Z,6.61
2018-12-25T10:51:00.438Z,6.73
2018-12-25T10:55:56.487Z,6.72
2018-12-25T11:00:52.530Z,6.75
2018-12-25T11:05:49.343Z,6.66
2018-12-25T11:11:27.522Z,6.68
2018-12-25T11:16:24.964Z,6.46
2018-12-25T11:21:21.929Z,6.27
2018-12-25T11:26:18.885Z,6.44
2018-12-25T11:31:20.657Z,6.22
2018-12-25T11:36:38.718Z,6.39
2018-12-25T11:41:35.644Z,6.31
2018-12-25T11:57:11.159Z,6.39
2018-12-25T12:07:16.839Z,6.34
2018-12-25T12:12:13.899Z,6.40
2018-12-25T12:17:52.061Z,6.30
2018-12-25T12:22:49.013Z,6.28
2018-12-25T12:27:46.176Z,6.40
2018-12-25T12:32:43.470Z,6.52
2018-12-25T12:37:40.795Z,6.47
2018-12-25T12:48:01.578Z,6.55
2018-12-25T12:52:58.921Z,6.38
2018-12-25T13:03:21.819Z,6.51
2018-12-25T13:08:18.107Z,6.61
2018-12-25T13:13:14.310Z,6.62
2018-12-25T13:18:10.504Z,6.60
2018-12-25T13:23:27.131Z,6.58
2018-12-25T13:28:43.707Z,6.68
2018-12-25T13:33:40.324Z,6.77
2018-12-25T13:38:56.532Z,6.78
2018-12-25T13:43:52.998Z,6.83
2018-12-25T13:48:49.090Z,6.80
2018-12-25T13:59:24.828Z,6.82
2018-12-25T14:04:08.394Z,6.82
2018-12-25T14:09:46.150Z,6.88
2018-12-25T14:14:42.366Z,6.94
2018-12-25T14:19:38.460Z,6.93
2018-12-25T14:24:35.407Z,6.85
2018-12-25T14:34:35.204Z,6.81
2018-12-25T14:39:32.667Z,6.80
2018-12-25T14:44:29.509Z,6.80
2018-12-25T14:49:26.678Z,6.77
2018-12-25T14:54:22.877Z,6.75
2018-12-25T14:59:20.053Z,6.78
2018-12-25T15:04:16.917Z,6.66
2018-12-25T15:09:16.290Z,6.64
2018-12-25T15:19:37.866Z,6.67
2018-12-25T15:24:34.725Z,6.57
2018-12-25T15:29:51.648Z,6.54
2018-12-25T15:34:51.087Z,6.47
2018-12-25T15:50:36.486Z,6.30
2018-12-25T15:55:33.969Z,6.28
2018-12-25T16:00:32.063Z,6.26
2018-12-25T16:05:30.556Z,6.18
2018-12-25T16:11:08.649Z,6.24
2018-12-25T16:16:06.248Z,6.18
2018-12-25T16:21:05.868Z,6.11
2018-12-25T16:26:44.039Z,6.09
2018-12-25T16:31:41.047Z,6.05
2018-12-25T16:36:38.083Z,6.00
2018-12-25T16:41:35.098Z,5.99
2018-12-25T16:51:34.911Z,5.95
2018-12-25T16:56:31.027Z,5.82
2018-12-25T17:01:27.043Z,5.80
2018-12-25T17:06:23.055Z,5.79
2018-12-25T17:11:19.092Z,5.74
2018-12-25T17:16:15.087Z,5.70
2018-12-25T17:21:11.107Z,5.67
2018-12-25T17:26:07.122Z,5.64
2018-12-25T17:31:03.139Z,5.61
2018-12-25T17:35:59.156Z,5.64
2018-12-25T17:40:55.179Z,5.60
2018-12-25T17:45:51.203Z,5.59
2018-12-25T17:50:47.223Z,5.59
2018-12-25T17:55:43.245Z,5.61
2018-12-25T18:00:39.329Z,5.52
2018-12-25T18:05:35.356Z,5.51
2018-12-25T18:10:31.376Z,5.47
2018-12-25T18:20:31.271Z,5.47
2018-12-25T18:25:49.673Z,5.43
2018-12-25T18:30:46.456Z,5.47
2018-12-25T18:35:43.179Z,5.50
2018-12-25T18:40:59.599Z,5.40
2018-12-25T18:56:43.398Z,5.33
2018-12-25T19:01:42.307Z,5.33
2018-12-25T19:06:39.534Z,5.29
2018-12-25T19:12:17.644Z,5.33
2018-12-25T19:27:41.667Z,5.41
2018-12-25T19:32:43.723Z,5.32
2018-12-25T19:37:37.693Z,5.27
2018-12-25T19:42:54.290Z,5.29
2018-12-25T19:48:11.146Z,5.26
2018-12-25T19:53:07.662Z,5.16
2018-12-25T19:58:26.763Z,5.23
2018-12-25T20:04:04.936Z,5.16
2018-12-25T20:15:11.698Z,5.29
2018-12-25T20:20:48.279Z,5.31
2018-12-25T20:26:25.021Z,5.24
2018-12-25T20:32:01.130Z,5.06
2018-12-25T20:37:39.592Z,5.09
2018-12-25T20:43:15.350Z,5.03
2018-12-25T20:48:51.108Z,5.06
2018-12-25T20:54:28.762Z,5.01
2018-12-25T21:00:06.422Z,4.97
2018-12-25T21:05:42.178Z,4.96
2018-12-25T21:11:17.934Z,4.94
2018-12-25T21:16:55.679Z,4.97
2018-12-25T21:22:13.477Z,4.91
2018-12-25T21:27:29.758Z,4.88
2018-12-25T21:32:25.899Z,4.87
2018-12-25T21:37:22.041Z,4.90
2018-12-25T21:42:18.179Z,4.91
2018-12-25T21:47:14.298Z,4.87
2018-12-25T21:52:10.426Z,4.81
2018-12-25T21:57:07.121Z,4.81
2018-12-25T22:02:03.154Z,4.75
2018-12-25T22:06:59.167Z,4.71
2018-12-25T22:11:55.186Z,4.72
2018-12-25T22:16:51.204Z,4.74
2018-12-25T22:21:47.221Z,4.73
2018-12-25T22:26:43.349Z,4.71
2018-12-25T22:31:39.355Z,4.67
2018-12-25T22:36:35.415Z,4.63
2018-12-25T22:41:31.457Z,4.67
2018-12-25T22:46:27.477Z,4.60
2018-12-25T22:51:23.494Z,4.60
2018-12-25T22:56:19.615Z,4.54
2018-12-25T23:01:15.703Z,4.55
2018-12-25T23:06:11.714Z,4.56
2018-12-25T23:11:07.828Z,4.51
2018-12-25T23:16:03.846Z,4.48
2018-12-25T23:20:59.916Z,4.44
2018-12-25T23:25:55.930Z,4.48
2018-12-25T23:30:51.954Z,4.38
2018-12-25T23:35:47.963Z,4.41
2018-12-25T23:40:43.977Z,4.34
2018-12-25T23:45:40.004Z,4.35
2018-12-25T23:50:36.019Z,4.37
2018-12-25T23:55:32.038Z,4.30
